Arcata, California
Current Conditions -  °F | °C
As of 10:53 AM on Friday 28 Nov 2014 (Local Time) from KACV Reporting Station
Overcast Overcast  
Wind Chill: 58°   Ceiling: 6000
Heat Index: 58°   Visibility: 10mi
Dew Point: 52°   Wind: 10mph
Humidity: 81%   Direction: 140°SE
Pressure: 29.86"   Gusts: NA
Location:  40.87°N, 124.08°W
Report Text: KACV 281853Z AUTO 14009KT 10SM BKN060 OVC085 14/11 A2986 RMK AO2 SLP116 T01440111
Loading
Personal Weather Stations






























Interactive Weather Map New forecast layout! Learn more

10-Day Weather Forecast

Advertisements
Track Severe Weather on mobile